This is the latest recevied weather packets stored in our database for station/object SP1BMW-13. If no packets are shown the sender has not sent any weather packets the latest 10 day(s).
| Time | Temp. | Humidity | Pressure | Rain* | Wind** | Luminosity | Snow |
|---|---|---|---|---|---|---|---|
| 1777202990 | 11.11° C | 24% | 1024.1 hPa | 0 mm | 2.24 m/s, 321° | 671 W/m² | - |
| 1777202930 | 11.11° C | 24% | 1024.1 hPa | 0 mm | 1.79 m/s, 355° | 671 W/m² | - |
| 1777202870 | 11.11° C | 23% | 1023.9 hPa | 0 mm | 2.68 m/s, 301° | 672 W/m² | - |
| 1777202810 | 11.11° C | 23% | 1024.1 hPa | 0 mm | 2.68 m/s, 331° | 673 W/m² | - |
| 1777202750 | 11.11° C | 27% | 1024.2 hPa | 0 mm | 1.79 m/s, 21° | 671 W/m² | - |
| 1777202690 | 11.11° C | 26% | 1024 hPa | 0 mm | 2.24 m/s, 319° | 672 W/m² | - |
| 1777202630 | 11.11° C | 26% | 1024 hPa | 0 mm | 3.13 m/s, 313° | 672 W/m² | - |
| 1777202570 | 11.11° C | 27% | 1024 hPa | 0 mm | 2.68 m/s, 5° | 671 W/m² | - |
| 1777202510 | 11.11° C | 28% | 1024 hPa | 0 mm | 1.79 m/s, 61° | 673 W/m² | - |
| 1777202450 | 11.11° C | 27% | 1023.9 hPa | 0 mm | 1.34 m/s, 284° | 673 W/m² | - |
| 1777202390 | 11.11° C | 27% | 1024 hPa | 0 mm | 2.24 m/s, 266° | 675 W/m² | - |
| 1777202330 | 11.11° C | 27% | 1024 hPa | 0 mm | 2.68 m/s, 319° | 674 W/m² | - |
| 1777202270 | 11.11° C | 28% | 1024.1 hPa | 0 mm | 2.68 m/s, 283° | 675 W/m² | - |
| 1777202209 | 11.11° C | 27% | 1024.1 hPa | 0 mm | 3.58 m/s, 328° | 675 W/m² | - |
| 1777202150 | 11.11° C | 27% | 1023.9 hPa | 0 mm | 2.68 m/s, 273° | 675 W/m² | - |
| 1777202090 | 11.11° C | 26% | 1023.8 hPa | 0 mm | 2.68 m/s, 324° | 676 W/m² | - |
| 1777202030 | 11.11° C | 25% | 1024 hPa | 0 mm | 2.68 m/s, 31° | 676 W/m² | - |
| 1777201970 | 11.11° C | 28% | 1023.9 hPa | 0 mm | 2.68 m/s, 286° | 674 W/m² | - |
| 1777201910 | 11.11° C | 27% | 1023.9 hPa | 0 mm | 0.89 m/s, 316° | 675 W/m² | - |
| 1777201850 | 11.11° C | 27% | 1024 hPa | 0 mm | 2.68 m/s, 356° | 675 W/m² | - |
| 1777201790 | 11.11° C | 27% | 1023.9 hPa | 0 mm | 1.79 m/s, 355° | 673 W/m² | - |
| 1777201730 | 11.11° C | 29% | 1024 hPa | 0 mm | 0.45 m/s, 317° | 674 W/m² | - |
| 1777201670 | 11.11° C | 28% | 1023.9 hPa | 0 mm | 2.24 m/s, 353° | 673 W/m² | - |
| 1777201610 | 11.11° C | 28% | 1024.1 hPa | 0 mm | 1.34 m/s, 47° | 672 W/m² | - |
| 1777201550 | 11.11° C | 29% | 1024 hPa | 0 mm | 2.68 m/s, 314° | 675 W/m² | - |
* Rain latest hour (hover to see other rain measurements)
** Current wind speed in m/s (hover to see current wind gust speed)